WMT2400 LATI-LIBP
Flight info
| Callsign | WMT2400 |
|---|---|
| Flight time | 0h 56m |
| Altitude | 36000 |
| Route | DIRES DCT PAPIZ DCT ENOXA DCT PERAV/N0388F220 DCT RUPAX/N0366F180 L612 ERPOG |
| Aircraft | A321/M-SDE1E2E3FGIJ1J4RWXY/LB1 |
Departure
| Time | 2026-05-09 11:22 |
|---|---|
| Airport | Tirana International Airport Mother Teresa (LATI) |
Arrival
| Time | 2026-05-09 12:18 |
|---|---|
| Airport | Abruzzo Airport (LIBP) |
| Time | Latitude | Longitude | Altitude | Speed | Heading |
|---|---|---|---|---|---|
| 2026-05-09 10:42 | 41.42105 | 19.71493 | 122 ft | 0 kts | 264° |
| 2026-05-09 11:13 | 41.42106 | 19.71509 | 118 ft | 4 kts | 264° |
| 2026-05-09 11:13 | 41.42109 | 19.71542 | 119 ft | 4 kts | 276° |
| 2026-05-09 11:14 | 41.42103 | 19.71564 | 118 ft | 4 kts | 349° |
| 2026-05-09 11:14 | 41.42077 | 19.71564 | 121 ft | 4 kts | 359° |
| 2026-05-09 11:14 | 41.42071 | 19.71564 | 118 ft | 0 kts | 354° |
| 2026-05-09 11:17 | 41.42078 | 19.71563 | 120 ft | 3 kts | 354° |
| 2026-05-09 11:17 | 41.42113 | 19.71558 | 119 ft | 7 kts | 354° |
| 2026-05-09 11:18 | 41.42177 | 19.71550 | 118 ft | 11 kts | 354° |
| 2026-05-09 11:18 | 41.42267 | 19.71537 | 118 ft | 15 kts | 354° |
| 2026-05-09 11:18 | 41.42375 | 19.71522 | 117 ft | 17 kts | 354° |
| 2026-05-09 11:18 | 41.42438 | 19.71514 | 116 ft | 9 kts | 354° |
| 2026-05-09 11:19 | 41.42507 | 19.71505 | 119 ft | 11 kts | 354° |
| 2026-05-09 11:19 | 41.42590 | 19.71494 | 140 ft | 13 kts | 354° |
| 2026-05-09 11:19 | 41.42659 | 19.71501 | 161 ft | 9 kts | 47° |
| 2026-05-09 11:19 | 41.42668 | 19.71595 | 156 ft | 11 kts | 85° |
| 2026-05-09 11:20 | 41.42676 | 19.71701 | 156 ft | 11 kts | 84° |
| 2026-05-09 11:20 | 41.42679 | 19.71746 | 158 ft | 0 kts | 84° |
| 2026-05-09 11:20 | 41.42679 | 19.71752 | 158 ft | 2 kts | 84° |
| 2026-05-09 11:20 | 41.42682 | 19.71784 | 154 ft | 5 kts | 84° |
| 2026-05-09 11:21 | 41.42687 | 19.71847 | 158 ft | 7 kts | 85° |
| 2026-05-09 11:21 | 41.42660 | 19.71899 | 157 ft | 9 kts | 169° |
| 2026-05-09 11:21 | 41.42528 | 19.71915 | 156 ft | 49 kts | 175° |
| 2026-05-09 11:21 | 41.41923 | 19.72000 | 162 ft | 123 kts | 175° |
| 2026-05-09 11:22 | 41.40883 | 19.72140 | 274 ft | 168 kts | 173° |
| 2026-05-09 11:22 | 41.39745 | 19.72305 | 1048 ft | 163 kts | 174° |
| 2026-05-09 11:22 | 41.38615 | 19.72454 | 1743 ft | 166 kts | 172° |
| 2026-05-09 11:22 | 41.37394 | 19.72617 | 2096 ft | 187 kts | 172° |
| 2026-05-09 11:23 | 41.36014 | 19.72803 | 2397 ft | 211 kts | 172° |
| 2026-05-09 11:23 | 41.34473 | 19.73009 | 2679 ft | 234 kts | 172° |
| 2026-05-09 11:23 | 41.32813 | 19.73225 | 3253 ft | 243 kts | 172° |
| 2026-05-09 11:23 | 41.31122 | 19.73441 | 3969 ft | 245 kts | 173° |
| 2026-05-09 11:24 | 41.29383 | 19.73666 | 4570 ft | 259 kts | 173° |
| 2026-05-09 11:24 | 41.27569 | 19.73900 | 5380 ft | 264 kts | 173° |
| 2026-05-09 11:24 | 41.25729 | 19.73925 | 6216 ft | 269 kts | 192° |
| 2026-05-09 11:24 | 41.24091 | 19.72726 | 7012 ft | 275 kts | 226° |
| 2026-05-09 11:25 | 41.23023 | 19.70614 | 7850 ft | 278 kts | 243° |
| 2026-05-09 11:25 | 41.22277 | 19.68243 | 8725 ft | 279 kts | 248° |
| 2026-05-09 11:25 | 41.21627 | 19.65804 | 9586 ft | 282 kts | 249° |
| 2026-05-09 11:25 | 41.20960 | 19.63346 | 10351 ft | 287 kts | 248° |
| 2026-05-09 11:26 | 41.20208 | 19.60778 | 10604 ft | 310 kts | 247° |
| 2026-05-09 11:26 | 41.19347 | 19.58048 | 10915 ft | 329 kts | 246° |
| 2026-05-09 11:26 | 41.18416 | 19.55244 | 11547 ft | 334 kts | 245° |
| 2026-05-09 11:26 | 41.17446 | 19.52422 | 12279 ft | 338 kts | 245° |
| 2026-05-09 11:27 | 41.16451 | 19.49583 | 13018 ft | 341 kts | 245° |
| 2026-05-09 11:27 | 41.15442 | 19.46722 | 13760 ft | 344 kts | 245° |
| 2026-05-09 11:27 | 41.14422 | 19.43831 | 14418 ft | 347 kts | 245° |
| 2026-05-09 11:27 | 41.13394 | 19.40915 | 15086 ft | 350 kts | 245° |
| 2026-05-09 11:28 | 41.12360 | 19.37975 | 15731 ft | 354 kts | 246° |
| 2026-05-09 11:28 | 41.11316 | 19.35007 | 16393 ft | 357 kts | 246° |
| 2026-05-09 11:28 | 41.10263 | 19.32012 | 17050 ft | 360 kts | 246° |
| 2026-05-09 11:28 | 41.09201 | 19.28987 | 17696 ft | 363 kts | 246° |
| 2026-05-09 11:29 | 41.08145 | 19.25981 | 18332 ft | 366 kts | 246° |
| 2026-05-09 11:29 | 41.07051 | 19.22869 | 18897 ft | 369 kts | 246° |
| 2026-05-09 11:29 | 41.05884 | 19.19821 | 19442 ft | 374 kts | 240° |
| 2026-05-09 11:29 | 41.04319 | 19.17099 | 20001 ft | 380 kts | 230° |
| 2026-05-09 11:30 | 41.02527 | 19.14511 | 20552 ft | 383 kts | 230° |
| 2026-05-09 11:30 | 41.00720 | 19.11898 | 21119 ft | 386 kts | 231° |
| 2026-05-09 11:30 | 40.98905 | 19.09271 | 21686 ft | 389 kts | 231° |
| 2026-05-09 11:30 | 40.97073 | 19.06616 | 22020 ft | 391 kts | 231° |
| 2026-05-09 11:31 | 40.95241 | 19.03963 | 22094 ft | 391 kts | 231° |
| 2026-05-09 11:31 | 40.93416 | 19.01302 | 22095 ft | 389 kts | 234° |
| 2026-05-09 11:31 | 40.91927 | 18.98350 | 22101 ft | 383 kts | 247° |
| 2026-05-09 11:31 | 40.91014 | 18.95079 | 22098 ft | 378 kts | 259° |
| 2026-05-09 11:32 | 40.90685 | 18.91654 | 22095 ft | 375 kts | 271° |
| 2026-05-09 11:32 | 40.90937 | 18.88244 | 22095 ft | 373 kts | 283° |
| 2026-05-09 11:32 | 40.91683 | 18.84965 | 22100 ft | 372 kts | 288° |
| 2026-05-09 11:32 | 40.92495 | 18.81720 | 22096 ft | 372 kts | 288° |
| 2026-05-09 11:33 | 40.93303 | 18.78470 | 22101 ft | 372 kts | 288° |
| 2026-05-09 11:33 | 40.94106 | 18.75221 | 22101 ft | 371 kts | 288° |
| 2026-05-09 11:33 | 40.95696 | 18.68725 | 22099 ft | 371 kts | 288° |
| 2026-05-09 11:34 | 40.96493 | 18.65468 | 22099 ft | 371 kts | 288° |
| 2026-05-09 11:34 | 40.97288 | 18.62219 | 22101 ft | 371 kts | 288° |
| 2026-05-09 11:34 | 40.98084 | 18.58969 | 22101 ft | 371 kts | 288° |
| 2026-05-09 11:34 | 40.98877 | 18.55719 | 22101 ft | 371 kts | 288° |
| 2026-05-09 11:35 | 40.99411 | 18.53523 | 22096 ft | 371 kts | 288° |
| 2026-05-09 11:35 | 41.00204 | 18.50270 | 22097 ft | 371 kts | 288° |
| 2026-05-09 11:35 | 41.00997 | 18.47022 | 22098 ft | 371 kts | 288° |
| 2026-05-09 11:35 | 41.01785 | 18.43776 | 22097 ft | 371 kts | 288° |
| 2026-05-09 11:36 | 41.02573 | 18.40514 | 22303 ft | 374 kts | 288° |
| 2026-05-09 11:36 | 41.03368 | 18.37232 | 22930 ft | 375 kts | 288° |
| 2026-05-09 11:36 | 41.04166 | 18.33940 | 23523 ft | 376 kts | 288° |
| 2026-05-09 11:36 | 41.04968 | 18.30633 | 24003 ft | 378 kts | 288° |
| 2026-05-09 11:37 | 41.05773 | 18.27308 | 24439 ft | 380 kts | 288° |
| 2026-05-09 11:37 | 41.06581 | 18.23964 | 24877 ft | 382 kts | 288° |
| 2026-05-09 11:37 | 41.07390 | 18.20597 | 25298 ft | 385 kts | 288° |
| 2026-05-09 11:37 | 41.08201 | 18.17213 | 25712 ft | 387 kts | 288° |
| 2026-05-09 11:38 | 41.09017 | 18.13802 | 26014 ft | 389 kts | 288° |
| 2026-05-09 11:38 | 41.09831 | 18.10392 | 26082 ft | 384 kts | 288° |
| 2026-05-09 11:38 | 41.10629 | 18.07045 | 26094 ft | 379 kts | 288° |
| 2026-05-09 11:38 | 41.11421 | 18.03723 | 26094 ft | 377 kts | 288° |
| 2026-05-09 11:39 | 41.12212 | 18.00414 | 26093 ft | 376 kts | 288° |
| 2026-05-09 11:39 | 41.13000 | 17.97106 | 26094 ft | 376 kts | 288° |
| 2026-05-09 11:39 | 41.13788 | 17.93794 | 26100 ft | 376 kts | 288° |
| 2026-05-09 11:40 | 41.15350 | 17.87223 | 26097 ft | 376 kts | 288° |
| 2026-05-09 11:40 | 41.16134 | 17.83915 | 26101 ft | 376 kts | 288° |
| 2026-05-09 11:40 | 41.16916 | 17.80607 | 26098 ft | 376 kts | 288° |
| 2026-05-09 11:40 | 41.17695 | 17.77294 | 26099 ft | 376 kts | 288° |
| 2026-05-09 11:41 | 41.18472 | 17.73987 | 26095 ft | 376 kts | 288° |
| 2026-05-09 11:41 | 41.19251 | 17.70674 | 26098 ft | 376 kts | 288° |
| 2026-05-09 11:41 | 41.20086 | 17.67391 | 26099 ft | 375 kts | 292° |
| 2026-05-09 11:41 | 41.21292 | 17.64320 | 26105 ft | 376 kts | 300° |
| 2026-05-09 11:42 | 41.22638 | 17.61344 | 26098 ft | 376 kts | 300° |
| 2026-05-09 11:42 | 41.23984 | 17.58363 | 26099 ft | 376 kts | 300° |
| 2026-05-09 11:42 | 41.25324 | 17.55386 | 26102 ft | 376 kts | 300° |
| 2026-05-09 11:42 | 41.26666 | 17.52404 | 26102 ft | 376 kts | 300° |
| 2026-05-09 11:43 | 41.28005 | 17.49420 | 26096 ft | 376 kts | 300° |
| 2026-05-09 11:43 | 41.29341 | 17.46437 | 26098 ft | 376 kts | 300° |
| 2026-05-09 11:43 | 41.30675 | 17.43450 | 26099 ft | 376 kts | 300° |
| 2026-05-09 11:43 | 41.32013 | 17.40464 | 26099 ft | 376 kts | 300° |
| 2026-05-09 11:44 | 41.33350 | 17.37478 | 26101 ft | 376 kts | 300° |
| 2026-05-09 11:44 | 41.34683 | 17.34489 | 26106 ft | 375 kts | 299° |
| 2026-05-09 11:44 | 41.36013 | 17.31503 | 26106 ft | 375 kts | 300° |
| 2026-05-09 11:44 | 41.37345 | 17.28509 | 26109 ft | 375 kts | 299° |
| 2026-05-09 11:45 | 41.38675 | 17.25524 | 26103 ft | 375 kts | 300° |
| 2026-05-09 11:45 | 41.40007 | 17.22535 | 26107 ft | 375 kts | 300° |
| 2026-05-09 11:45 | 41.41338 | 17.19542 | 26107 ft | 375 kts | 300° |
| 2026-05-09 11:45 | 41.42665 | 17.16552 | 26108 ft | 375 kts | 299° |
| 2026-05-09 11:46 | 41.43991 | 17.13561 | 26110 ft | 375 kts | 299° |
| 2026-05-09 11:46 | 41.45315 | 17.10570 | 26111 ft | 375 kts | 299° |
| 2026-05-09 11:46 | 41.46637 | 17.07579 | 26110 ft | 374 kts | 299° |
| 2026-05-09 11:46 | 41.47959 | 17.04588 | 26109 ft | 374 kts | 299° |
| 2026-05-09 11:47 | 41.49278 | 17.01600 | 26105 ft | 374 kts | 299° |
| 2026-05-09 11:47 | 41.50595 | 16.98608 | 26108 ft | 374 kts | 299° |
| 2026-05-09 11:47 | 41.51914 | 16.95615 | 26110 ft | 374 kts | 299° |
| 2026-05-09 11:47 | 41.53287 | 16.92669 | 26106 ft | 374 kts | 304° |
| 2026-05-09 11:48 | 41.54806 | 16.89848 | 26106 ft | 374 kts | 304° |
| 2026-05-09 11:48 | 41.56326 | 16.87028 | 26105 ft | 374 kts | 304° |
| 2026-05-09 11:48 | 41.57844 | 16.84212 | 26109 ft | 374 kts | 304° |
| 2026-05-09 11:48 | 41.59364 | 16.81394 | 26109 ft | 374 kts | 304° |
| 2026-05-09 11:49 | 41.60885 | 16.78573 | 26102 ft | 374 kts | 304° |
| 2026-05-09 11:49 | 41.62404 | 16.75756 | 26106 ft | 373 kts | 304° |
| 2026-05-09 11:49 | 41.63920 | 16.72941 | 26107 ft | 373 kts | 304° |
| 2026-05-09 11:49 | 41.65431 | 16.70119 | 26108 ft | 373 kts | 304° |
| 2026-05-09 11:50 | 41.66940 | 16.67296 | 26107 ft | 373 kts | 304° |
| 2026-05-09 11:50 | 41.68451 | 16.64476 | 26108 ft | 373 kts | 304° |
| 2026-05-09 11:50 | 41.69961 | 16.61656 | 26109 ft | 373 kts | 304° |
| 2026-05-09 11:50 | 41.71469 | 16.58835 | 26108 ft | 373 kts | 304° |
| 2026-05-09 11:51 | 41.72978 | 16.56015 | 26104 ft | 372 kts | 304° |
| 2026-05-09 11:51 | 41.74486 | 16.53196 | 26106 ft | 372 kts | 304° |
| 2026-05-09 11:51 | 41.75996 | 16.50374 | 26107 ft | 372 kts | 303° |
| 2026-05-09 11:51 | 41.77503 | 16.47555 | 26106 ft | 372 kts | 303° |
| 2026-05-09 11:52 | 41.79006 | 16.44738 | 26107 ft | 372 kts | 303° |
| 2026-05-09 11:52 | 41.80508 | 16.41913 | 26108 ft | 372 kts | 303° |
| 2026-05-09 11:52 | 41.82007 | 16.39091 | 26106 ft | 371 kts | 303° |
| 2026-05-09 11:52 | 41.83505 | 16.36270 | 26106 ft | 371 kts | 303° |
| 2026-05-09 11:53 | 41.85002 | 16.33446 | 26103 ft | 371 kts | 303° |
| 2026-05-09 11:53 | 41.86496 | 16.30620 | 26103 ft | 371 kts | 303° |
| 2026-05-09 11:53 | 41.87993 | 16.27792 | 26104 ft | 371 kts | 303° |
| 2026-05-09 11:53 | 41.89491 | 16.24966 | 26108 ft | 371 kts | 303° |
| 2026-05-09 11:54 | 41.90987 | 16.22140 | 26108 ft | 371 kts | 303° |
| 2026-05-09 11:54 | 41.92478 | 16.19312 | 26111 ft | 371 kts | 303° |
| 2026-05-09 11:54 | 41.93966 | 16.16481 | 26115 ft | 371 kts | 303° |
| 2026-05-09 11:54 | 41.95453 | 16.13649 | 26114 ft | 371 kts | 303° |
| 2026-05-09 11:55 | 41.96939 | 16.10818 | 26114 ft | 371 kts | 303° |
| 2026-05-09 11:56 | 42.04371 | 15.96673 | 26114 ft | 370 kts | 303° |
| 2026-05-09 11:56 | 42.05851 | 15.93845 | 26112 ft | 369 kts | 303° |
| 2026-05-09 11:56 | 42.07328 | 15.91016 | 26112 ft | 369 kts | 303° |
| 2026-05-09 11:57 | 42.08803 | 15.88191 | 26109 ft | 369 kts | 303° |
| 2026-05-09 11:57 | 42.10280 | 15.85364 | 26110 ft | 369 kts | 303° |
| 2026-05-09 11:57 | 42.11757 | 15.82535 | 26108 ft | 369 kts | 303° |
| 2026-05-09 11:57 | 42.13232 | 15.79708 | 26106 ft | 369 kts | 303° |
| 2026-05-09 11:58 | 42.14705 | 15.76882 | 26100 ft | 368 kts | 303° |
| 2026-05-09 11:58 | 42.16171 | 15.74066 | 25966 ft | 363 kts | 303° |
| 2026-05-09 11:58 | 42.17612 | 15.71298 | 25716 ft | 358 kts | 303° |
| 2026-05-09 11:58 | 42.19036 | 15.68559 | 25482 ft | 356 kts | 303° |
| 2026-05-09 11:59 | 42.20452 | 15.65831 | 25240 ft | 354 kts | 303° |
| 2026-05-09 11:59 | 42.21859 | 15.63117 | 25009 ft | 353 kts | 303° |
| 2026-05-09 11:59 | 42.23259 | 15.60407 | 24767 ft | 351 kts | 303° |
| 2026-05-09 11:59 | 42.24652 | 15.57707 | 24547 ft | 347 kts | 303° |
| 2026-05-09 12:00 | 42.26021 | 15.55054 | 24210 ft | 343 kts | 303° |
| 2026-05-09 12:00 | 42.27378 | 15.52426 | 23844 ft | 339 kts | 303° |
| 2026-05-09 12:00 | 42.28719 | 15.49825 | 23442 ft | 336 kts | 303° |
| 2026-05-09 12:00 | 42.30055 | 15.47267 | 23050 ft | 331 kts | 306° |
| 2026-05-09 12:01 | 42.31541 | 15.44955 | 22621 ft | 328 kts | 309° |
| 2026-05-09 12:01 | 42.33054 | 15.42673 | 22206 ft | 324 kts | 310° |
| 2026-05-09 12:01 | 42.34549 | 15.40415 | 21782 ft | 321 kts | 310° |
| 2026-05-09 12:01 | 42.36028 | 15.38181 | 21360 ft | 318 kts | 310° |
| 2026-05-09 12:02 | 42.37498 | 15.35958 | 20941 ft | 315 kts | 310° |
| 2026-05-09 12:02 | 42.38956 | 15.33754 | 20502 ft | 313 kts | 310° |
| 2026-05-09 12:02 | 42.40401 | 15.31566 | 20086 ft | 311 kts | 310° |
| 2026-05-09 12:02 | 42.41836 | 15.29388 | 19639 ft | 309 kts | 310° |
| 2026-05-09 12:03 | 42.43261 | 15.27218 | 19214 ft | 308 kts | 310° |
| 2026-05-09 12:03 | 42.44673 | 15.25064 | 18902 ft | 303 kts | 310° |
| 2026-05-09 12:03 | 42.46048 | 15.22928 | 18677 ft | 299 kts | 306° |
| 2026-05-09 12:03 | 42.47089 | 15.20508 | 18454 ft | 298 kts | 292° |
| 2026-05-09 12:04 | 42.47619 | 15.17801 | 18194 ft | 299 kts | 278° |
| 2026-05-09 12:04 | 42.47640 | 15.14976 | 17863 ft | 302 kts | 270° |
| 2026-05-09 12:04 | 42.47532 | 15.12095 | 17090 ft | 306 kts | 270° |
| 2026-05-09 12:04 | 42.47423 | 15.09265 | 16401 ft | 297 kts | 269° |
| 2026-05-09 12:05 | 42.47316 | 15.06489 | 15727 ft | 294 kts | 269° |
| 2026-05-09 12:05 | 42.47210 | 15.03758 | 15303 ft | 288 kts | 269° |
| 2026-05-09 12:05 | 42.47103 | 15.01054 | 14939 ft | 286 kts | 269° |
| 2026-05-09 12:05 | 42.46997 | 14.98366 | 14572 ft | 285 kts | 269° |
| 2026-05-09 12:06 | 42.46893 | 14.95679 | 14197 ft | 285 kts | 269° |
| 2026-05-09 12:06 | 42.46791 | 14.93007 | 13813 ft | 284 kts | 269° |
| 2026-05-09 12:06 | 42.46691 | 14.90336 | 13415 ft | 283 kts | 269° |
| 2026-05-09 12:06 | 42.46589 | 14.87680 | 13037 ft | 282 kts | 268° |
| 2026-05-09 12:07 | 42.46484 | 14.85037 | 12664 ft | 280 kts | 268° |
| 2026-05-09 12:07 | 42.46379 | 14.82407 | 12294 ft | 279 kts | 268° |
| 2026-05-09 12:07 | 42.46273 | 14.79791 | 11926 ft | 278 kts | 268° |
| 2026-05-09 12:07 | 42.46167 | 14.77174 | 11558 ft | 277 kts | 268° |
| 2026-05-09 12:08 | 42.46060 | 14.74572 | 11197 ft | 277 kts | 268° |
| 2026-05-09 12:08 | 42.45954 | 14.71967 | 10824 ft | 277 kts | 268° |
| 2026-05-09 12:08 | 42.45854 | 14.69361 | 10442 ft | 278 kts | 268° |
| 2026-05-09 12:08 | 42.45758 | 14.66789 | 10299 ft | 268 kts | 268° |
| 2026-05-09 12:09 | 42.45672 | 14.64502 | 9965 ft | 262 kts | 268° |
| 2026-05-09 12:09 | 42.45581 | 14.62047 | 9443 ft | 260 kts | 268° |
| 2026-05-09 12:09 | 42.45494 | 14.59613 | 9269 ft | 258 kts | 268° |
| 2026-05-09 12:10 | 42.47849 | 14.53503 | 8475 ft | 268 kts | 337° |
| 2026-05-09 12:10 | 42.49585 | 14.52745 | 8065 ft | 258 kts | 343° |
| 2026-05-09 12:10 | 42.51281 | 14.52061 | 7589 ft | 250 kts | 343° |
| 2026-05-09 12:11 | 42.52908 | 14.51393 | 7173 ft | 240 kts | 343° |
| 2026-05-09 12:11 | 42.54423 | 14.50602 | 6785 ft | 228 kts | 331° |
| 2026-05-09 12:11 | 42.55640 | 14.49276 | 6382 ft | 225 kts | 313° |
| 2026-05-09 12:11 | 42.56616 | 14.47594 | 5943 ft | 228 kts | 309° |
| 2026-05-09 12:12 | 42.57590 | 14.45889 | 5554 ft | 228 kts | 309° |
| 2026-05-09 12:12 | 42.58540 | 14.44230 | 5413 ft | 219 kts | 309° |
| 2026-05-09 12:12 | 42.59465 | 14.42620 | 5291 ft | 215 kts | 309° |
| 2026-05-09 12:12 | 42.60084 | 14.41542 | 5138 ft | 213 kts | 309° |
| 2026-05-09 12:13 | 42.60907 | 14.39912 | 4855 ft | 212 kts | 292° |
| 2026-05-09 12:13 | 42.61045 | 14.37922 | 4537 ft | 212 kts | 257° |
| 2026-05-09 12:13 | 42.60354 | 14.36222 | 4232 ft | 210 kts | 223° |
| 2026-05-09 12:13 | 42.59210 | 14.34984 | 3919 ft | 209 kts | 217° |
| 2026-05-09 12:14 | 42.58050 | 14.33792 | 3608 ft | 208 kts | 217° |
| 2026-05-09 12:14 | 42.56904 | 14.32604 | 3307 ft | 206 kts | 217° |
| 2026-05-09 12:14 | 42.55791 | 14.31446 | 3024 ft | 196 kts | 217° |
| 2026-05-09 12:14 | 42.54731 | 14.30343 | 2741 ft | 188 kts | 217° |
| 2026-05-09 12:15 | 42.53716 | 14.29287 | 2481 ft | 179 kts | 217° |
| 2026-05-09 12:15 | 42.52762 | 14.28295 | 2241 ft | 167 kts | 217° |
| 2026-05-09 12:15 | 42.51861 | 14.27358 | 2032 ft | 162 kts | 216° |
| 2026-05-09 12:15 | 42.50952 | 14.26414 | 1833 ft | 166 kts | 216° |
| 2026-05-09 12:16 | 42.50032 | 14.25460 | 1618 ft | 165 kts | 216° |
| 2026-05-09 12:16 | 42.49136 | 14.24529 | 1381 ft | 155 kts | 217° |
| 2026-05-09 12:16 | 42.48301 | 14.23660 | 1166 ft | 148 kts | 217° |
| 2026-05-09 12:16 | 42.47487 | 14.22814 | 1001 ft | 147 kts | 216° |
| 2026-05-09 12:17 | 42.46661 | 14.21962 | 823 ft | 150 kts | 217° |
| 2026-05-09 12:17 | 42.45833 | 14.21087 | 607 ft | 149 kts | 217° |
| 2026-05-09 12:17 | 42.45009 | 14.20246 | 382 ft | 146 kts | 217° |
| 2026-05-09 12:17 | 42.44190 | 14.19400 | 165 ft | 149 kts | 216° |
| 2026-05-09 12:18 | 42.43381 | 14.18563 | 47 ft | 135 kts | 218° |
| 2026-05-09 12:18 | 42.42870 | 14.18035 | 43 ft | 46 kts | 218° |
| 2026-05-09 12:18 | 42.42672 | 14.17905 | 47 ft | 17 kts | 187° |
| 2026-05-09 12:18 | 42.42573 | 14.17926 | 46 ft | 10 kts | 136° |
| 2026-05-09 12:19 | 42.42569 | 14.18005 | 46 ft | 11 kts | 47° |
| 2026-05-09 12:19 | 42.42637 | 14.18077 | 46 ft | 14 kts | 37° |
| 2026-05-09 12:19 | 42.42723 | 14.18166 | 45 ft | 17 kts | 37° |
| 2026-05-09 12:19 | 42.42825 | 14.18273 | 45 ft | 20 kts | 38° |
| 2026-05-09 12:20 | 42.42942 | 14.18394 | 45 ft | 22 kts | 37° |
| 2026-05-09 12:20 | 42.43012 | 14.18479 | 46 ft | 12 kts | 65° |
| 2026-05-09 12:20 | 42.43023 | 14.18572 | 46 ft | 9 kts | 82° |
| 2026-05-09 12:20 | 42.43032 | 14.18627 | 46 ft | 5 kts | 77° |
| 2026-05-09 12:21 | 42.43019 | 14.18668 | 44 ft | 5 kts | 126° |
| 2026-05-09 12:21 | 42.43008 | 14.18687 | 46 ft | 1 kts | 127° |
| 2026-05-09 12:21 | 42.43004 | 14.18694 | 46 ft | 1 kts | 127° |
| 2026-05-09 12:21 | 42.43003 | 14.18695 | 46 ft | 0 kts | 127° |